Terminal Aerodrome Forecast
Issued by NWS

Current Version | Previous Version | Text Only | Print | Product List | Glossary On
Versions: 1 2 3 4 5 6 7 8 9 10 11 12 13 14 15 16 17 18 19 20 21 22
000 FTUS41 KBOX 241729 TAFBAF TAF KBAF 241729Z 2418/2518 32009KT P6SM OVC100 FM250800 01006KT 6SM -RAPL OVC060 FM251100 05008G18KT 1SM -FZRAPL BR BKN008 OVC020 FM251500 07007KT 1/2SM -RAPL FG OVC008=

USA.gov is the U.S. government's official web portal to all federal, state and local government web resources and services.